Station Historical Data
Daily Summary for December 1, 2017 Units:  Both    English   Metric
« Previous Day
Next Day »
Daily Weekly Monthly Yearly Custom
  High: Low: Average:
Temperature: 48.3 °F /  9.1 °C 31.9 °F /  -0.1 °C 41 °F /  5 °C
Dew Point: 35.0 °F /  1.7 °C 26.9 °F /  -2.8 °C 31.5 °F /  -0.3 °C
Humidity: 83% 54% 69%
Wind Speed: 7.0mph /  11.3km/h - 2.2mph /  3.5km/h
Wind Gust: 14.0mph /  22.5km/h - -
Wind- - West
Pressure: 30.28 in /  1025.3 hPa 30.05 in /  1017.5 hPa -
Precipitation: 0.00 in /  0 mm    
Historical Graphs
 
 
Tabular Data for December 1, 2017
Time Temperature Dew Point Pressure Wind Wind Speed Wind Gust Humidity Rainfall Rate (Hourly)
00:04 43.1 °F /  6.2 °C 35.0 °F /  1.7 °C 30.05in /  1017.5hPa WNW 7.0mph /  11.3km/h 11.0mph /  17.7km/h 73% 0.00in /  0mm
00:14 43.0 °F /  6.1 °C 34.9 °F /  1.6 °C 30.05in /  1017.5hPa West 4.0mph /  6.4km/h 9.0mph /  14.5km/h 73% 0.00in /  0mm
00:19 42.9 °F /  6.1 °C 34.8 °F /  1.6 °C 30.06in /  1017.8hPa WNW 2.0mph /  3.2km/h 9.0mph /  14.5km/h 73% 0.00in /  0mm
00:24 42.8 °F /  6 °C 34.7 °F /  1.5 °C 30.05in /  1017.5hPa West 4.0mph /  6.4km/h 7.0mph /  11.3km/h 73% 0.00in /  0mm
00:29 42.8 °F /  6 °C 34.7 °F /  1.5 °C 30.06in /  1017.8hPa West 4.0mph /  6.4km/h 10.0mph /  16.1km/h 73% 0.00in /  0mm
00:34 42.8 °F /  6 °C 34.7 °F /  1.5 °C 30.06in /  1017.8hPa WNW 4.0mph /  6.4km/h 10.0mph /  16.1km/h 73% 0.00in /  0mm
00:39 42.7 °F /  5.9 °C 35.0 °F /  1.7 °C 30.06in /  1017.8hPa West 4.0mph /  6.4km/h 10.0mph /  16.1km/h 74% 0.00in /  0mm
00:44 42.6 °F /  5.9 °C 34.9 °F /  1.6 °C 30.06in /  1017.8hPa West 4.0mph /  6.4km/h 9.0mph /  14.5km/h 74% 0.00in /  0mm
00:54 42.7 °F /  5.9 °C 35.0 °F /  1.7 °C 30.07in /  1018.2hPa West 5.0mph /  8km/h 11.0mph /  17.7km/h 74% 0.00in /  0mm
00:59 42.5 °F /  5.8 °C 34.8 °F /  1.6 °C 30.07in /  1018.2hPa West 5.0mph /  8km/h 11.0mph /  17.7km/h 74% 0.00in /  0mm
01:04 42.5 °F /  5.8 °C 34.8 °F /  1.6 °C 30.07in /  1018.2hPa West 5.0mph /  8km/h 10.0mph /  16.1km/h 74% 0.00in /  0mm
01:14 42.4 °F /  5.8 °C 34.7 °F /  1.5 °C 30.08in /  1018.5hPa West 3.0mph /  4.8km/h 9.0mph /  14.5km/h 74% 0.00in /  0mm
01:19 42.4 °F /  5.8 °C 34.7 °F /  1.5 °C 30.08in /  1018.5hPa NW 3.0mph /  4.8km/h 10.0mph /  16.1km/h 74% 0.00in /  0mm
01:24 42.2 °F /  5.7 °C 34.5 °F /  1.4 °C 30.08in /  1018.5hPa West 6.0mph /  9.7km/h 10.0mph /  16.1km/h 74% 0.00in /  0mm
01:29 42.3 °F /  5.7 °C 34.6 °F /  1.4 °C 30.08in /  1018.5hPa WNW 3.0mph /  4.8km/h 12.0mph /  19.3km/h 74% 0.00in /  0mm
01:34 42.2 °F /  5.7 °C 34.5 °F /  1.4 °C 30.08in /  1018.5hPa West 5.0mph /  8km/h 13.0mph /  20.9km/h 74% 0.00in /  0mm
01:39 42.2 °F /  5.7 °C 34.5 °F /  1.4 °C 30.08in /  1018.5hPa NW 7.0mph /  11.3km/h 11.0mph /  17.7km/h 74% 0.00in /  0mm
01:44 42.1 °F /  5.6 °C 34.4 °F /  1.3 °C 30.08in /  1018.5hPa West 5.0mph /  8km/h 13.0mph /  20.9km/h 74% 0.00in /  0mm
01:49 42.0 °F /  5.6 °C 34.3 °F /  1.3 °C 30.09in /  1018.8hPa WNW 6.0mph /  9.7km/h 13.0mph /  20.9km/h 74% 0.00in /  0mm
01:54 42.0 °F /  5.6 °C 34.3 °F /  1.3 °C 30.09in /  1018.8hPa WNW 6.0mph /  9.7km/h 11.0mph /  17.7km/h 74% 0.00in /  0mm
01:59 41.9 °F /  5.5 °C 34.2 °F /  1.2 °C 30.10in /  1019.2hPa West 5.0mph /  8km/h 11.0mph /  17.7km/h 74% 0.00in /  0mm
02:04 41.9 °F /  5.5 °C 34.2 °F /  1.2 °C 30.10in /  1019.2hPa West 2.0mph /  3.2km/h 9.0mph /  14.5km/h 74% 0.00in /  0mm
02:09 41.9 °F /  5.5 °C 34.2 °F /  1.2 °C 30.10in /  1019.2hPa West 6.0mph /  9.7km/h 8.0mph /  12.9km/h 74% 0.00in /  0mm
02:14 41.9 °F /  5.5 °C 34.2 °F /  1.2 °C 30.10in /  1019.2hPa WNW 4.0mph /  6.4km/h 12.0mph /  19.3km/h 74% 0.00in /  0mm
02:19 41.9 °F /  5.5 °C 34.2 °F /  1.2 °C 30.10in /  1019.2hPa WNW 6.0mph /  9.7km/h 12.0mph /  19.3km/h 74% 0.00in /  0mm
02:24 41.9 °F /  5.5 °C 34.2 °F /  1.2 °C 30.11in /  1019.5hPa WNW 5.0mph /  8km/h 11.0mph /  17.7km/h 74% 0.00in /  0mm
02:34 41.9 °F /  5.5 °C 34.2 °F /  1.2 °C 30.11in /  1019.5hPa WNW 5.0mph /  8km/h 9.0mph /  14.5km/h 74% 0.00in /  0mm
02:39 41.9 °F /  5.5 °C 34.2 °F /  1.2 °C 30.12in /  1019.9hPa WSW 2.0mph /  3.2km/h 9.0mph /  14.5km/h 74% 0.00in /  0mm
02:44 41.9 °F /  5.5 °C 34.2 °F /  1.2 °C 30.12in /  1019.9hPa West 3.0mph /  4.8km/h 10.0mph /  16.1km/h 74% 0.00in /  0mm
02:49 41.8 °F /  5.4 °C 34.1 °F /  1.2 °C 30.12in /  1019.9hPa West 5.0mph /  8km/h 10.0mph /  16.1km/h 74% 0.00in /  0mm
02:59 41.6 °F /  5.3 °C 33.9 °F /  1.1 °C 30.12in /  1019.9hPa West 5.0mph /  8km/h 14.0mph /  22.5km/h 74% 0.00in /  0mm
03:04 41.6 °F /  5.3 °C 33.9 °F /  1.1 °C 30.12in /  1019.9hPa West 6.0mph /  9.7km/h 14.0mph /  22.5km/h 74% 0.00in /  0mm
03:09 41.5 °F /  5.3 °C 33.8 °F /  1 °C 30.13in /  1020.2hPa West 6.0mph /  9.7km/h 12.0mph /  19.3km/h 74% 0.00in /  0mm
03:14 41.4 °F /  5.2 °C 33.7 °F /  0.9 °C 30.13in /  1020.2hPa West 5.0mph /  8km/h 12.0mph /  19.3km/h 74% 0.00in /  0mm
03:19 41.4 °F /  5.2 °C 33.7 °F /  0.9 °C 30.13in /  1020.2hPa West 5.0mph /  8km/h 12.0mph /  19.3km/h 74% 0.00in /  0mm
03:24 41.4 °F /  5.2 °C 33.7 °F /  0.9 °C 30.13in /  1020.2hPa West 5.0mph /  8km/h 9.0mph /  14.5km/h 74% 0.00in /  0mm
03:29 41.2 °F /  5.1 °C 33.5 °F /  0.8 °C 30.14in /  1020.5hPa West 5.0mph /  8km/h 9.0mph /  14.5km/h 74% 0.00in /  0mm
03:34 41.2 °F /  5.1 °C 33.5 °F /  0.8 °C 30.14in /  1020.5hPa West 5.0mph /  8km/h 9.0mph /  14.5km/h 74% 0.00in /  0mm
03:39 41.0 °F /  5 °C 33.3 °F /  0.7 °C 30.14in /  1020.5hPa West 4.0mph /  6.4km/h 9.0mph /  14.5km/h 74% 0.00in /  0mm
03:44 40.9 °F /  4.9 °C 33.2 °F /  0.7 °C 30.14in /  1020.5hPa West 2.0mph /  3.2km/h 9.0mph /  14.5km/h 74% 0.00in /  0mm
03:49 40.9 °F /  4.9 °C 33.2 °F /  0.7 °C 30.14in /  1020.5hPa West 1.0mph /  1.6km/h 7.0mph /  11.3km/h 74% 0.00in /  0mm
03:54 40.8 °F /  4.9 °C 33.2 °F /  0.7 °C 30.15in /  1020.9hPa West 3.0mph /  4.8km/h 6.0mph /  9.7km/h 74% 0.00in /  0mm
03:59 40.8 °F /  4.9 °C 33.2 °F /  0.7 °C 30.15in /  1020.9hPa WNW 3.0mph /  4.8km/h 6.0mph /  9.7km/h 74% 0.00in /  0mm
04:04 40.8 °F /  4.9 °C 32.8 °F /  0.4 °C 30.15in /  1020.9hPa West 3.0mph /  4.8km/h 6.0mph /  9.7km/h 73% 0.00in /  0mm
04:14 40.7 °F /  4.8 °C 32.7 °F /  0.4 °C 30.15in /  1020.9hPa WNW 3.0mph /  4.8km/h 7.0mph /  11.3km/h 73% 0.00in /  0mm
04:19 40.8 °F /  4.9 °C 32.8 °F /  0.4 °C 30.16in /  1021.2hPa WNW 4.0mph /  6.4km/h 7.0mph /  11.3km/h 73% 0.00in /  0mm
04:24 40.8 °F /  4.9 °C 32.8 °F /  0.4 °C 30.16in /  1021.2hPa WNW 3.0mph /  4.8km/h 7.0mph /  11.3km/h 73% 0.00in /  0mm
04:29 40.7 °F /  4.8 °C 32.7 °F /  0.4 °C 30.16in /  1021.2hPa West 3.0mph /  4.8km/h 6.0mph /  9.7km/h 73% 0.00in /  0mm
04:34 40.7 °F /  4.8 °C 33.1 °F /  0.6 °C 30.16in /  1021.2hPa West 2.0mph /  3.2km/h 6.0mph /  9.7km/h 74% 0.00in /  0mm
04:39 40.7 °F /  4.8 °C 32.7 °F /  0.4 °C 30.16in /  1021.2hPa WSW 3.0mph /  4.8km/h 6.0mph /  9.7km/h 73% 0.00in /  0mm
04:44 40.7 °F /  4.8 °C 32.7 °F /  0.4 °C 30.16in /  1021.2hPa WSW 3.0mph /  4.8km/h 9.0mph /  14.5km/h 73% 0.00in /  0mm
04:49 40.6 °F /  4.8 °C 32.6 °F /  0.3 °C 30.16in /  1021.2hPa Calm   5.0mph /  8km/h 73% 0.00in /  0mm
04:54 40.6 °F /  4.8 °C 32.6 °F /  0.3 °C 30.16in /  1021.2hPa WSW 2.0mph /  3.2km/h 3.0mph /  4.8km/h 73% 0.00in /  0mm
04:59 40.6 °F /  4.8 °C 32.6 °F /  0.3 °C 30.17in /  1021.6hPa Calm   3.0mph /  4.8km/h 73% 0.00in /  0mm
05:04 40.5 °F /  4.7 °C 32.5 °F /  0.3 °C 30.16in /  1021.2hPa WSW 1.0mph /  1.6km/h 3.0mph /  4.8km/h 73% 0.00in /  0mm
05:09 40.5 °F /  4.7 °C 32.5 °F /  0.3 °C 30.17in /  1021.6hPa Calm   3.0mph /  4.8km/h 73% 0.00in /  0mm
05:14 40.5 °F /  4.7 °C 32.5 °F /  0.3 °C 30.17in /  1021.6hPa Calm   5.0mph /  8km/h 73% 0.00in /  0mm
05:24 40.4 °F /  4.7 °C 32.4 °F /  0.2 °C 30.17in /  1021.6hPa West 2.0mph /  3.2km/h 4.0mph /  6.4km/h 73% 0.00in /  0mm
05:29 40.3 °F /  4.6 °C 32.3 °F /  0.2 °C 30.17in /  1021.6hPa WNW 3.0mph /  4.8km/h 4.0mph /  6.4km/h 73% 0.00in /  0mm
05:34 40.3 °F /  4.6 °C 32.3 °F /  0.2 °C 30.17in /  1021.6hPa West 3.0mph /  4.8km/h 7.0mph /  11.3km/h 73% 0.00in /  0mm
05:39 40.4 °F /  4.7 °C 32.4 °F /  0.2 °C 30.18in /  1021.9hPa West 3.0mph /  4.8km/h 7.0mph /  11.3km/h 73% 0.00in /  0mm
05:44 40.4 °F /  4.7 °C 32.4 °F /  0.2 °C 30.17in /  1021.6hPa West 3.0mph /  4.8km/h 5.0mph /  8km/h 73% 0.00in /  0mm
05:49 40.5 °F /  4.7 °C 32.5 °F /  0.3 °C 30.18in /  1021.9hPa West 3.0mph /  4.8km/h 7.0mph /  11.3km/h 73% 0.00in /  0mm
05:54 40.5 °F /  4.7 °C 32.5 °F /  0.3 °C 30.18in /  1021.9hPa Calm   5.0mph /  8km/h 73% 0.00in /  0mm
05:59 40.4 °F /  4.7 °C 32.4 °F /  0.2 °C 30.18in /  1021.9hPa Calm   3.0mph /  4.8km/h 73% 0.00in /  0mm
06:24 40.6 °F /  4.8 °C 32.6 °F /  0.3 °C 30.19in /  1022.2hPa WNW 2.0mph /  3.2km/h 8.0mph /  12.9km/h 73% 0.00in /  0mm
06:29 40.6 °F /  4.8 °C 32.3 °F /  0.2 °C 30.19in /  1022.2hPa West 1.0mph /  1.6km/h 6.0mph /  9.7km/h 72% 0.00in /  0mm
06:34 40.6 °F /  4.8 °C 32.3 °F /  0.2 °C 30.19in /  1022.2hPa West 2.0mph /  3.2km/h 4.0mph /  6.4km/h 72% 0.00in /  0mm
06:39 40.6 °F /  4.8 °C 32.3 °F /  0.2 °C 30.19in /  1022.2hPa West 1.0mph /  1.6km/h 6.0mph /  9.7km/h 72% 0.00in /  0mm
06:44 40.6 °F /  4.8 °C 32.6 °F /  0.3 °C 30.19in /  1022.2hPa West 2.0mph /  3.2km/h 6.0mph /  9.7km/h 73% 0.00in /  0mm
06:54 40.1 °F /  4.5 °C 32.1 °F /  0.1 °C 30.19in /  1022.2hPa Calm     73% 0.00in /  0mm
06:59 39.9 °F /  4.4 °C 31.9 °F /  -0.1 °C 30.19in /  1022.2hPa Calm     73% 0.00in /  0mm
07:14 39.5 °F /  4.2 °C 31.9 °F /  -0.1 °C 30.20in /  1022.6hPa Calm     74% 0.00in /  0mm
07:19 39.6 °F /  4.2 °C 32.0 °F /  0 °C 30.20in /  1022.6hPa Calm     74% 0.00in /  0mm
07:29 39.6 °F /  4.2 °C 32.0 °F /  0 °C 30.21in /  1022.9hPa Calm     74% 0.00in /  0mm
07:44 39.8 °F /  4.3 °C 32.2 °F /  0.1 °C 30.22in /  1023.2hPa Calm   4.0mph /  6.4km/h 74% 0.00in /  0mm
07:49 39.9 °F /  4.4 °C 32.3 °F /  0.2 °C 30.22in /  1023.2hPa WNW 1.0mph /  1.6km/h 4.0mph /  6.4km/h 74% 0.00in /  0mm
07:54 40.0 °F /  4.4 °C 32.4 °F /  0.2 °C 30.22in /  1023.2hPa WNW 2.0mph /  3.2km/h 4.0mph /  6.4km/h 74% 0.00in /  0mm
07:59 40.1 °F /  4.5 °C 32.5 °F /  0.3 °C 30.22in /  1023.2hPa WNW 2.0mph /  3.2km/h 5.0mph /  8km/h 74% 0.00in /  0mm
08:09 40.3 °F /  4.6 °C 32.7 °F /  0.4 °C 30.23in /  1023.6hPa West 4.0mph /  6.4km/h 5.0mph /  8km/h 74% 0.00in /  0mm
08:14 40.4 °F /  4.7 °C 32.8 °F /  0.4 °C 30.23in /  1023.6hPa NW 2.0mph /  3.2km/h 5.0mph /  8km/h 74% 0.00in /  0mm
08:19 40.6 °F /  4.8 °C 33.0 °F /  0.6 °C 30.23in /  1023.6hPa West 2.0mph /  3.2km/h 4.0mph /  6.4km/h 74% 0.00in /  0mm
08:24 40.6 °F /  4.8 °C 33.0 °F /  0.6 °C 30.23in /  1023.6hPa WNW 3.0mph /  4.8km/h 6.0mph /  9.7km/h 74% 0.00in /  0mm
08:29 40.7 °F /  4.8 °C 33.1 °F /  0.6 °C 30.23in /  1023.6hPa WNW 3.0mph /  4.8km/h 6.0mph /  9.7km/h 74% 0.00in /  0mm
08:34 40.8 °F /  4.9 °C 33.2 °F /  0.7 °C 30.24in /  1023.9hPa WNW 2.0mph /  3.2km/h 5.0mph /  8km/h 74% 0.00in /  0mm
08:39 40.9 °F /  4.9 °C 32.9 °F /  0.5 °C 30.24in /  1023.9hPa West 2.0mph /  3.2km/h 4.0mph /  6.4km/h 73% 0.00in /  0mm
08:44 41.0 °F /  5 °C 32.7 °F /  0.4 °C 30.24in /  1023.9hPa NW 4.0mph /  6.4km/h 6.0mph /  9.7km/h 72% 0.00in /  0mm
08:49 41.2 °F /  5.1 °C 32.9 °F /  0.5 °C 30.24in /  1023.9hPa NW 2.0mph /  3.2km/h 6.0mph /  9.7km/h 72% 0.00in /  0mm
08:54 41.2 °F /  5.1 °C 32.5 °F /  0.3 °C 30.24in /  1023.9hPa NNW 3.0mph /  4.8km/h 4.0mph /  6.4km/h 71% 0.00in /  0mm
08:59 41.3 °F /  5.2 °C 32.2 °F /  0.1 °C 30.24in /  1023.9hPa NNW 3.0mph /  4.8km/h 5.0mph /  8km/h 70% 0.00in /  0mm
09:04 41.5 °F /  5.3 °C 32.4 °F /  0.2 °C 30.24in /  1023.9hPa NNW 2.0mph /  3.2km/h 5.0mph /  8km/h 70% 0.00in /  0mm
09:09 41.7 °F /  5.4 °C 32.6 °F /  0.3 °C 30.24in /  1023.9hPa Calm   2.0mph /  3.2km/h 70% 0.00in /  0mm
09:19 41.8 °F /  5.4 °C 32.4 °F /  0.2 °C 30.24in /  1023.9hPa NW 2.0mph /  3.2km/h 4.0mph /  6.4km/h 69% 0.00in /  0mm
09:29 42.0 °F /  5.6 °C 32.2 °F /  0.1 °C 30.24in /  1023.9hPa NW 3.0mph /  4.8km/h 5.0mph /  8km/h 68% 0.00in /  0mm
09:34 42.1 °F /  5.6 °C 32.3 °F /  0.2 °C 30.25in /  1024.3hPa WNW 3.0mph /  4.8km/h 6.0mph /  9.7km/h 68% 0.00in /  0mm
09:39 42.2 °F /  5.7 °C 31.6 °F /  -0.2 °C 30.25in /  1024.3hPa NW 3.0mph /  4.8km/h 7.0mph /  11.3km/h 66% 0.00in /  0mm
09:44 42.5 °F /  5.8 °C 32.3 °F /  0.2 °C 30.25in /  1024.3hPa NW 3.0mph /  4.8km/h 7.0mph /  11.3km/h 67% 0.00in /  0mm
09:49 42.5 °F /  5.8 °C 31.9 °F /  -0.1 °C 30.25in /  1024.3hPa NNW 2.0mph /  3.2km/h 8.0mph /  12.9km/h 66% 0.00in /  0mm
09:54 42.8 °F /  6 °C 32.2 °F /  0.1 °C 30.25in /  1024.3hPa WNW 3.0mph /  4.8km/h 7.0mph /  11.3km/h 66% 0.00in /  0mm
09:59 42.7 °F /  5.9 °C 31.7 °F /  -0.2 °C 30.25in /  1024.3hPa NW 3.0mph /  4.8km/h 6.0mph /  9.7km/h 65% 0.00in /  0mm
10:04 43.1 °F /  6.2 °C 31.4 °F /  -0.3 °C 30.25in /  1024.3hPa NW 3.0mph /  4.8km/h 7.0mph /  11.3km/h 63% 0.00in /  0mm
10:24 44.0 °F /  6.7 °C 30.6 °F /  -0.8 °C 30.25in /  1024.3hPa NNW 5.0mph /  8km/h 8.0mph /  12.9km/h 59% 0.00in /  0mm
10:34 44.5 °F /  6.9 °C 31.5 °F /  -0.3 °C 30.25in /  1024.3hPa NW 3.0mph /  4.8km/h 7.0mph /  11.3km/h 60% 0.00in /  0mm
10:39 44.7 °F /  7.1 °C 31.2 °F /  -0.4 °C 30.24in /  1023.9hPa NW 3.0mph /  4.8km/h 7.0mph /  11.3km/h 59% 0.00in /  0mm
10:44 44.9 °F /  7.2 °C 31.4 °F /  -0.3 °C 30.25in /  1024.3hPa NW 3.0mph /  4.8km/h 6.0mph /  9.7km/h 59% 0.00in /  0mm
10:54 44.6 °F /  7 °C 30.3 °F /  -0.9 °C 30.24in /  1023.9hPa North 3.0mph /  4.8km/h 9.0mph /  14.5km/h 57% 0.00in /  0mm
10:59 44.6 °F /  7 °C 30.3 °F /  -0.9 °C 30.24in /  1023.9hPa NNE 4.0mph /  6.4km/h 9.0mph /  14.5km/h 57% 0.00in /  0mm
11:04 44.8 °F /  7.1 °C 30.9 °F /  -0.6 °C 30.24in /  1023.9hPa North 3.0mph /  4.8km/h 9.0mph /  14.5km/h 58% 0.00in /  0mm
11:09 45.3 °F /  7.4 °C 31.4 °F /  -0.3 °C 30.24in /  1023.9hPa WNW 4.0mph /  6.4km/h 7.0mph /  11.3km/h 58% 0.00in /  0mm
11:19 45.2 °F /  7.3 °C 30.9 °F /  -0.6 °C 30.24in /  1023.9hPa NNW 2.0mph /  3.2km/h 8.0mph /  12.9km/h 57% 0.00in /  0mm
11:34 45.4 °F /  7.4 °C 30.6 °F /  -0.8 °C 30.23in /  1023.6hPa West 1.0mph /  1.6km/h 7.0mph /  11.3km/h 56% 0.00in /  0mm
11:39 45.5 °F /  7.5 °C 30.7 °F /  -0.7 °C 30.23in /  1023.6hPa West 3.0mph /  4.8km/h 7.0mph /  11.3km/h 56% 0.00in /  0mm
11:44 45.8 °F /  7.7 °C 31.0 °F /  -0.6 °C 30.23in /  1023.6hPa WNW 3.0mph /  4.8km/h 7.0mph /  11.3km/h 56% 0.00in /  0mm
11:54 45.7 °F /  7.6 °C 30.4 °F /  -0.9 °C 30.24in /  1023.9hPa WNW 3.0mph /  4.8km/h 7.0mph /  11.3km/h 55% 0.00in /  0mm
11:59 45.8 °F /  7.7 °C 31.9 °F /  -0.1 °C 30.24in /  1023.9hPa WNW 2.0mph /  3.2km/h 6.0mph /  9.7km/h 58% 0.00in /  0mm
12:04 45.9 °F /  7.7 °C 30.6 °F /  -0.8 °C 30.24in /  1023.9hPa WNW 2.0mph /  3.2km/h 7.0mph /  11.3km/h 55% 0.00in /  0mm
12:09 45.6 °F /  7.6 °C 30.8 °F /  -0.7 °C 30.24in /  1023.9hPa NNW 3.0mph /  4.8km/h 6.0mph /  9.7km/h 56% 0.00in /  0mm
12:24 46.0 °F /  7.8 °C 31.2 °F /  -0.4 °C 30.23in /  1023.6hPa West 3.0mph /  4.8km/h 4.0mph /  6.4km/h 56% 0.00in /  0mm
12:29 45.2 °F /  7.3 °C 30.0 °F /  -1.1 °C 30.24in /  1023.9hPa Calm   5.0mph /  8km/h 55% 0.00in /  0mm
12:34 45.4 °F /  7.4 °C 30.6 °F /  -0.8 °C 30.24in /  1023.9hPa NNW 1.0mph /  1.6km/h 5.0mph /  8km/h 56% 0.00in /  0mm
12:39 46.1 °F /  7.8 °C 30.8 °F /  -0.7 °C 30.23in /  1023.6hPa WNW 2.0mph /  3.2km/h 6.0mph /  9.7km/h 55% 0.00in /  0mm
12:49 46.6 °F /  8.1 °C 30.8 °F /  -0.7 °C 30.23in /  1023.6hPa West 3.0mph /  4.8km/h 8.0mph /  12.9km/h 54% 0.00in /  0mm
12:54 46.7 °F /  8.2 °C 31.8 °F /  -0.1 °C 30.23in /  1023.6hPa West 3.0mph /  4.8km/h 8.0mph /  12.9km/h 56% 0.00in /  0mm
12:59 46.1 °F /  7.8 °C 30.8 °F /  -0.7 °C 30.24in /  1023.9hPa WNW 4.0mph /  6.4km/h 8.0mph /  12.9km/h 55% 0.00in /  0mm
13:04 45.3 °F /  7.4 °C 30.5 °F /  -0.8 °C 30.24in /  1023.9hPa West 3.0mph /  4.8km/h 7.0mph /  11.3km/h 56% 0.00in /  0mm
13:09 45.1 °F /  7.3 °C 30.3 °F /  -0.9 °C 30.23in /  1023.6hPa West 3.0mph /  4.8km/h 7.0mph /  11.3km/h 56% 0.00in /  0mm
13:14 44.9 °F /  7.2 °C 31.0 °F /  -0.6 °C 30.23in /  1023.6hPa WSW 2.0mph /  3.2km/h 6.0mph /  9.7km/h 58% 0.00in /  0mm
13:24 44.9 °F /  7.2 °C 30.6 °F /  -0.8 °C 30.23in /  1023.6hPa NW 2.0mph /  3.2km/h 5.0mph /  8km/h 57% 0.00in /  0mm
13:34 47.1 °F /  8.4 °C 32.2 °F /  0.1 °C 30.23in /  1023.6hPa West 3.0mph /  4.8km/h 6.0mph /  9.7km/h 56% 0.00in /  0mm
13:39 47.6 °F /  8.7 °C 31.8 °F /  -0.1 °C 30.23in /  1023.6hPa West 4.0mph /  6.4km/h 7.0mph /  11.3km/h 54% 0.00in /  0mm
13:44 47.4 °F /  8.6 °C 31.6 °F /  -0.2 °C 30.23in /  1023.6hPa North 2.0mph /  3.2km/h 4.0mph /  6.4km/h 54% 0.00in /  0mm
13:49 48.0 °F /  8.9 °C 32.6 °F /  0.3 °C 30.23in /  1023.6hPa West 3.0mph /  4.8km/h 4.0mph /  6.4km/h 55% 0.00in /  0mm
13:54 48.3 °F /  9.1 °C 32.4 °F /  0.2 °C 30.23in /  1023.6hPa West 3.0mph /  4.8km/h 6.0mph /  9.7km/h 54% 0.00in /  0mm
14:09 47.0 °F /  8.3 °C 31.2 °F /  -0.4 °C 30.23in /  1023.6hPa WSW 4.0mph /  6.4km/h 8.0mph /  12.9km/h 54% 0.00in /  0mm
14:14 47.1 °F /  8.4 °C 32.2 °F /  0.1 °C 30.23in /  1023.6hPa WSW 4.0mph /  6.4km/h 7.0mph /  11.3km/h 56% 0.00in /  0mm
14:19 46.9 °F /  8.3 °C 31.1 °F /  -0.5 °C 30.24in /  1023.9hPa SW 5.0mph /  8km/h 7.0mph /  11.3km/h 54% 0.00in /  0mm
14:24 46.7 °F /  8.2 °C 31.4 °F /  -0.3 °C 30.24in /  1023.9hPa WSW 4.0mph /  6.4km/h 8.0mph /  12.9km/h 55% 0.00in /  0mm
14:29 46.8 °F /  8.2 °C 31.5 °F /  -0.3 °C 30.24in /  1023.9hPa WSW 3.0mph /  4.8km/h 6.0mph /  9.7km/h 55% 0.00in /  0mm
14:44 46.9 °F /  8.3 °C 31.6 °F /  -0.2 °C 30.24in /  1023.9hPa South 4.0mph /  6.4km/h 6.0mph /  9.7km/h 55% 0.00in /  0mm
14:49 46.9 °F /  8.3 °C 31.6 °F /  -0.2 °C 30.23in /  1023.6hPa SSW 3.0mph /  4.8km/h 9.0mph /  14.5km/h 55% 0.00in /  0mm
14:54 46.5 °F /  8.1 °C 31.6 °F /  -0.2 °C 30.23in /  1023.6hPa West 3.0mph /  4.8km/h 6.0mph /  9.7km/h 56% 0.00in /  0mm
14:59 46.4 °F /  8 °C 31.5 °F /  -0.3 °C 30.23in /  1023.6hPa SW 4.0mph /  6.4km/h 7.0mph /  11.3km/h 56% 0.00in /  0mm
15:09 46.3 °F /  7.9 °C 31.4 °F /  -0.3 °C 30.24in /  1023.9hPa WSW 4.0mph /  6.4km/h 8.0mph /  12.9km/h 56% 0.00in /  0mm
15:14 45.9 °F /  7.7 °C 31.1 °F /  -0.5 °C 30.24in /  1023.9hPa WSW 4.0mph /  6.4km/h 9.0mph /  14.5km/h 56% 0.00in /  0mm
15:24 45.2 °F /  7.3 °C 31.3 °F /  -0.4 °C 30.24in /  1023.9hPa WSW 3.0mph /  4.8km/h 8.0mph /  12.9km/h 58% 0.00in /  0mm
15:29 44.6 °F /  7 °C 30.7 °F /  -0.7 °C 30.24in /  1023.9hPa SW 4.0mph /  6.4km/h 7.0mph /  11.3km/h 58% 0.00in /  0mm
15:34 44.5 °F /  6.9 °C 30.6 °F /  -0.8 °C 30.25in /  1024.3hPa WSW 3.0mph /  4.8km/h 9.0mph /  14.5km/h 58% 0.00in /  0mm
15:39 44.6 °F /  7 °C 30.7 °F /  -0.7 °C 30.25in /  1024.3hPa WSW 4.0mph /  6.4km/h 9.0mph /  14.5km/h 58% 0.00in /  0mm
15:44 44.6 °F /  7 °C 30.7 °F /  -0.7 °C 30.25in /  1024.3hPa WSW 2.0mph /  3.2km/h 10.0mph /  16.1km/h 58% 0.00in /  0mm
15:49 44.4 °F /  6.9 °C 30.5 °F /  -0.8 °C 30.25in /  1024.3hPa SW 4.0mph /  6.4km/h 9.0mph /  14.5km/h 58% 0.00in /  0mm
16:04 44.3 °F /  6.8 °C 30.0 °F /  -1.1 °C 30.24in /  1023.9hPa WSW 5.0mph /  8km/h 7.0mph /  11.3km/h 57% 0.00in /  0mm
16:09 44.1 °F /  6.7 °C 29.8 °F /  -1.2 °C 30.24in /  1023.9hPa WSW 4.0mph /  6.4km/h 9.0mph /  14.5km/h 57% 0.00in /  0mm
16:14 43.8 °F /  6.6 °C 30.0 °F /  -1.1 °C 30.24in /  1023.9hPa WSW 4.0mph /  6.4km/h 9.0mph /  14.5km/h 58% 0.00in /  0mm
16:29 43.0 °F /  6.1 °C 30.1 °F /  -1.1 °C 30.24in /  1023.9hPa SW 5.0mph /  8km/h 8.0mph /  12.9km/h 60% 0.00in /  0mm
16:34 42.8 °F /  6 °C 29.9 °F /  -1.2 °C 30.24in /  1023.9hPa SW 3.0mph /  4.8km/h 9.0mph /  14.5km/h 60% 0.00in /  0mm
16:39 42.6 °F /  5.9 °C 30.1 °F /  -1.1 °C 30.24in /  1023.9hPa SW 4.0mph /  6.4km/h 9.0mph /  14.5km/h 61% 0.00in /  0mm
16:44 42.3 °F /  5.7 °C 30.2 °F /  -1 °C 30.24in /  1023.9hPa SW 3.0mph /  4.8km/h 7.0mph /  11.3km/h 62% 0.00in /  0mm
16:49 42.2 °F /  5.7 °C 30.1 °F /  -1.1 °C 30.24in /  1023.9hPa WSW 4.0mph /  6.4km/h 7.0mph /  11.3km/h 62% 0.00in /  0mm
16:54 42.0 °F /  5.6 °C 30.3 °F /  -0.9 °C 30.24in /  1023.9hPa SSW 2.0mph /  3.2km/h 5.0mph /  8km/h 63% 0.00in /  0mm
16:59 41.8 °F /  5.4 °C 30.5 °F /  -0.8 °C 30.24in /  1023.9hPa SW 2.0mph /  3.2km/h 4.0mph /  6.4km/h 64% 0.00in /  0mm
17:04 41.3 °F /  5.2 °C 30.0 °F /  -1.1 °C 30.24in /  1023.9hPa SW 1.0mph /  1.6km/h 4.0mph /  6.4km/h 64% 0.00in /  0mm
17:09 40.9 °F /  4.9 °C 30.0 °F /  -1.1 °C 30.25in /  1024.3hPa Calm   2.0mph /  3.2km/h 65% 0.00in /  0mm
17:19 40.2 °F /  4.6 °C 29.7 °F /  -1.3 °C 30.25in /  1024.3hPa Calm   2.0mph /  3.2km/h 66% 0.00in /  0mm
17:24 40.2 °F /  4.6 °C 30.1 °F /  -1.1 °C 30.25in /  1024.3hPa Calm   4.0mph /  6.4km/h 67% 0.00in /  0mm
17:29 40.1 °F /  4.5 °C 30.0 °F /  -1.1 °C 30.25in /  1024.3hPa SW 1.0mph /  1.6km/h 4.0mph /  6.4km/h 67% 0.00in /  0mm
17:39 39.7 °F /  4.3 °C 30.0 °F /  -1.1 °C 30.25in /  1024.3hPa Calm     68% 0.00in /  0mm
17:44 39.6 °F /  4.2 °C 30.3 °F /  -0.9 °C 30.26in /  1024.6hPa Calm   2.0mph /  3.2km/h 69% 0.00in /  0mm
17:49 39.4 °F /  4.1 °C 30.1 °F /  -1.1 °C 30.26in /  1024.6hPa Calm   2.0mph /  3.2km/h 69% 0.00in /  0mm
17:54 39.1 °F /  3.9 °C 29.8 °F /  -1.2 °C 30.26in /  1024.6hPa Calm     69% 0.00in /  0mm
17:59 39.0 °F /  3.9 °C 30.0 °F /  -1.1 °C 30.26in /  1024.6hPa Calm     70% 0.00in /  0mm
18:04 39.1 °F /  3.9 °C 30.5 °F /  -0.8 °C 30.27in /  1024.9hPa Calm     71% 0.00in /  0mm
18:14 39.1 °F /  3.9 °C 30.5 °F /  -0.8 °C 30.27in /  1024.9hPa Calm     71% 0.00in /  0mm
18:19 38.8 °F /  3.8 °C 30.2 °F /  -1 °C 30.27in /  1024.9hPa Calm     71% 0.00in /  0mm
18:24 38.8 °F /  3.8 °C 30.5 °F /  -0.8 °C 30.27in /  1024.9hPa Calm     72% 0.00in /  0mm
18:29 38.4 °F /  3.6 °C 30.2 °F /  -1 °C 30.27in /  1024.9hPa Calm     72% 0.00in /  0mm
18:34 37.9 °F /  3.3 °C 29.7 °F /  -1.3 °C 30.27in /  1024.9hPa Calm     72% 0.00in /  0mm
18:39 37.4 °F /  3 °C 29.9 °F /  -1.2 °C 30.27in /  1024.9hPa Calm     74% 0.00in /  0mm
18:44 37.3 °F /  2.9 °C 30.1 °F /  -1.1 °C 30.27in /  1024.9hPa Calm     75% 0.00in /  0mm
18:49 37.2 °F /  2.9 °C 30.0 °F /  -1.1 °C 30.28in /  1025.3hPa Calm     75% 0.00in /  0mm
18:54 36.9 °F /  2.7 °C 29.7 °F /  -1.3 °C 30.27in /  1024.9hPa Calm     75% 0.00in /  0mm
18:59 36.8 °F /  2.7 °C 29.9 °F /  -1.2 °C 30.27in /  1024.9hPa Calm     76% 0.00in /  0mm
19:04 36.7 °F /  2.6 °C 29.8 °F /  -1.2 °C 30.27in /  1024.9hPa Calm     76% 0.00in /  0mm
19:09 36.6 °F /  2.6 °C 29.7 °F /  -1.3 °C 30.27in /  1024.9hPa Calm     76% 0.00in /  0mm
19:14 36.8 °F /  2.7 °C 30.3 °F /  -0.9 °C 30.27in /  1024.9hPa Calm     77% 0.00in /  0mm
19:19 37.0 °F /  2.8 °C 30.5 °F /  -0.8 °C 30.27in /  1024.9hPa Calm     77% 0.00in /  0mm
19:24 37.6 °F /  3.1 °C 31.4 °F /  -0.3 °C 30.27in /  1024.9hPa Calm     78% 0.00in /  0mm
19:29 37.1 °F /  2.8 °C 30.2 °F /  -1 °C 30.27in /  1024.9hPa Calm     76% 0.00in /  0mm
19:34 36.7 °F /  2.6 °C 30.5 °F /  -0.8 °C 30.27in /  1024.9hPa Calm     78% 0.00in /  0mm
19:39 37.0 °F /  2.8 °C 30.8 °F /  -0.7 °C 30.27in /  1024.9hPa Calm     78% 0.00in /  0mm
19:44 37.1 °F /  2.8 °C 30.6 °F /  -0.8 °C 30.27in /  1024.9hPa Calm     77% 0.00in /  0mm
19:49 36.9 °F /  2.7 °C 30.4 °F /  -0.9 °C 30.27in /  1024.9hPa Calm     77% 0.00in /  0mm
19:54 36.5 °F /  2.5 °C 30.0 °F /  -1.1 °C 30.27in /  1024.9hPa Calm     77% 0.00in /  0mm
19:59 36.1 °F /  2.3 °C 29.9 °F /  -1.2 °C 30.27in /  1024.9hPa Calm     78% 0.00in /  0mm
20:14 36.6 °F /  2.6 °C 30.1 °F /  -1.1 °C 30.26in /  1024.6hPa Calm     77% 0.00in /  0mm
20:19 36.6 °F /  2.6 °C 30.1 °F /  -1.1 °C 30.27in /  1024.9hPa Calm     77% 0.00in /  0mm
20:24 36.6 °F /  2.6 °C 30.1 °F /  -1.1 °C 30.27in /  1024.9hPa Calm     77% 0.00in /  0mm
20:29 36.3 °F /  2.4 °C 29.5 °F /  -1.4 °C 30.27in /  1024.9hPa Calm     76% 0.00in /  0mm
20:44 36.7 °F /  2.6 °C 29.5 °F /  -1.4 °C 30.26in /  1024.6hPa Calm     75% 0.00in /  0mm
20:49 36.8 °F /  2.7 °C 29.6 °F /  -1.3 °C 30.26in /  1024.6hPa Calm   3.0mph /  4.8km/h 75% 0.00in /  0mm
20:54 36.9 °F /  2.7 °C 29.7 °F /  -1.3 °C 30.26in /  1024.6hPa SSE 1.0mph /  1.6km/h 2.0mph /  3.2km/h 75% 0.00in /  0mm
20:59 36.9 °F /  2.7 °C 29.7 °F /  -1.3 °C 30.26in /  1024.6hPa Calm   2.0mph /  3.2km/h 75% 0.00in /  0mm
21:04 36.8 °F /  2.7 °C 29.6 °F /  -1.3 °C 30.26in /  1024.6hPa Calm   2.0mph /  3.2km/h 75% 0.00in /  0mm
21:14 36.2 °F /  2.3 °C 29.0 °F /  -1.7 °C 30.26in /  1024.6hPa Calm     75% 0.00in /  0mm
21:19 36.2 °F /  2.3 °C 29.0 °F /  -1.7 °C 30.26in /  1024.6hPa Calm   2.0mph /  3.2km/h 75% 0.00in /  0mm
21:24 35.8 °F /  2.1 °C 28.6 °F /  -1.9 °C 30.26in /  1024.6hPa Calm   2.0mph /  3.2km/h 75% 0.00in /  0mm
21:39 35.2 °F /  1.8 °C 28.4 °F /  -2 °C 30.26in /  1024.6hPa Calm     76% 0.00in /  0mm
22:04 33.8 °F /  1 °C 27.7 °F /  -2.4 °C 30.26in /  1024.6hPa Calm     78% 0.00in /  0mm
22:14 33.5 °F /  0.8 °C 27.7 °F /  -2.4 °C 30.25in /  1024.3hPa Calm     79% 0.00in /  0mm
22:24 33.2 °F /  0.7 °C 27.4 °F /  -2.6 °C 30.25in /  1024.3hPa Calm     79% 0.00in /  0mm
22:29 33.2 °F /  0.7 °C 27.4 °F /  -2.6 °C 30.26in /  1024.6hPa Calm     79% 0.00in /  0mm
22:34 33.2 °F /  0.7 °C 27.7 °F /  -2.4 °C 30.26in /  1024.6hPa Calm     80% 0.00in /  0mm
22:44 32.9 °F /  0.5 °C 27.4 °F /  -2.6 °C 30.26in /  1024.6hPa Calm     80% 0.00in /  0mm
22:59 32.4 °F /  0.2 °C 27.2 °F /  -2.7 °C 30.26in /  1024.6hPa Calm     81% 0.00in /  0mm
23:04 32.4 °F /  0.2 °C 27.2 °F /  -2.7 °C 30.26in /  1024.6hPa Calm     81% 0.00in /  0mm
23:09 32.2 °F /  0.1 °C 27.0 °F /  -2.8 °C 30.26in /  1024.6hPa Calm     81% 0.00in /  0mm
23:14 32.1 °F /  0.1 °C 26.9 °F /  -2.8 °C 30.26in /  1024.6hPa Calm     81% 0.00in /  0mm
23:19 32.0 °F /  0 °C 27.1 °F /  -2.7 °C 30.26in /  1024.6hPa Calm     82% 0.00in /  0mm
23:29 31.9 °F /  -0.1 °C 27.0 °F /  -2.8 °C 30.26in /  1024.6hPa Calm     82% 0.00in /  0mm
23:34 31.9 °F /  -0.1 °C 27.0 °F /  -2.8 °C 30.26in /  1024.6hPa Calm     82% 0.00in /  0mm
23:44 32.0 °F /  0 °C 27.4 °F /  -2.6 °C 30.26in /  1024.6hPa Calm     83% 0.00in /  0mm
23:49 32.2 °F /  0.1 °C 27.3 °F /  -2.6 °C 30.25in /  1024.3hPa Calm     82% 0.00in /  0mm
23:54 32.2 °F /  0.1 °C 27.6 °F /  -2.4 °C 30.25in /  1024.3hPa Calm     83% 0.00in /  0mm
Buffalo, New York, USA
Compliments of Weather Underground - 2 mb